sensor_id;sensor_type;location;lat;lon;timestamp;P1;durP1;ratioP1;P2;durP2;ratioP2
81026;SDS011;70506;49.320;8.446;2023-12-20T00:00:54;7.10;;;3.57;;
81026;SDS011;70506;49.320;8.446;2023-12-20T00:03:20;4.90;;;2.90;;
81026;SDS011;70506;49.320;8.446;2023-12-20T00:05:45;7.67;;;3.93;;
81026;SDS011;70506;49.320;8.446;2023-12-20T00:08:10;6.45;;;3.58;;
81026;SDS011;70506;49.320;8.446;2023-12-20T00:10:36;6.53;;;3.80;;
81026;SDS011;70506;49.320;8.446;2023-12-20T00:13:01;4.53;;;2.60;;
81026;SDS011;70506;49.320;8.446;2023-12-20T00:15:26;5.07;;;3.10;;
81026;SDS011;70506;49.320;8.446;2023-12-20T00:17:52;7.00;;;3.63;;
81026;SDS011;70506;49.320;8.446;2023-12-20T00:20:17;7.70;;;2.83;;
81026;SDS011;70506;49.320;8.446;2023-12-20T00:22:42;11.00;;;3.42;;
81026;SDS011;70506;49.320;8.446;2023-12-20T00:25:08;7.57;;;3.47;;
81026;SDS011;70506;49.320;8.446;2023-12-20T00:27:33;6.73;;;2.93;;
81026;SDS011;70506;49.320;8.446;2023-12-20T00:29:58;8.27;;;3.27;;
81026;SDS011;70506;49.320;8.446;2023-12-20T00:32:24;7.20;;;2.77;;
81026;SDS011;70506;49.320;8.446;2023-12-20T00:34:49;5.75;;;2.78;;
81026;SDS011;70506;49.320;8.446;2023-12-20T00:37:15;7.28;;;2.70;;
81026;SDS011;70506;49.320;8.446;2023-12-20T00:39:40;8.77;;;3.53;;
81026;SDS011;70506;49.320;8.446;2023-12-20T00:42:06;6.97;;;2.63;;
81026;SDS011;70506;49.320;8.446;2023-12-20T00:44:31;6.60;;;3.40;;
81026;SDS011;70506;49.320;8.446;2023-12-20T00:46:57;5.43;;;2.67;;
81026;SDS011;70506;49.320;8.446;2023-12-20T00:49:22;4.75;;;2.70;;
81026;SDS011;70506;49.320;8.446;2023-12-20T00:51:47;4.93;;;3.03;;
81026;SDS011;70506;49.320;8.446;2023-12-20T00:54:15;4.72;;;2.63;;
81026;SDS011;70506;49.320;8.446;2023-12-20T00:56:40;4.03;;;2.50;;
81026;SDS011;70506;49.320;8.446;2023-12-20T00:59:05;4.73;;;2.60;;
81026;SDS011;70506;49.320;8.446;2023-12-20T01:01:31;4.13;;;2.10;;
81026;SDS011;70506;49.320;8.446;2023-12-20T01:03:58;4.60;;;2.35;;
81026;SDS011;70506;49.320;8.446;2023-12-20T01:06:23;5.23;;;2.43;;
81026;SDS011;70506;49.320;8.446;2023-12-20T01:08:48;6.63;;;3.00;;
81026;SDS011;70506;49.320;8.446;2023-12-20T01:11:13;14.53;;;3.40;;
81026;SDS011;70506;49.320;8.446;2023-12-20T01:13:39;4.93;;;3.00;;
81026;SDS011;70506;49.320;8.446;2023-12-20T01:16:04;6.07;;;2.70;;
81026;SDS011;70506;49.320;8.446;2023-12-20T01:18:30;4.53;;;2.25;;
81026;SDS011;70506;49.320;8.446;2023-12-20T01:20:56;5.40;;;2.50;;
81026;SDS011;70506;49.320;8.446;2023-12-20T01:23:21;5.90;;;2.63;;
81026;SDS011;70506;49.320;8.446;2023-12-20T01:25:46;3.72;;;1.90;;
81026;SDS011;70506;49.320;8.446;2023-12-20T01:28:12;6.00;;;3.15;;
81026;SDS011;70506;49.320;8.446;2023-12-20T01:30:38;8.10;;;3.60;;
81026;SDS011;70506;49.320;8.446;2023-12-20T01:33:03;5.90;;;2.80;;
81026;SDS011;70506;49.320;8.446;2023-12-20T01:35:28;5.57;;;3.10;;
81026;SDS011;70506;49.320;8.446;2023-12-20T01:37:54;3.83;;;2.40;;
81026;SDS011;70506;49.320;8.446;2023-12-20T01:40:22;11.73;;;3.58;;
81026;SDS011;70506;49.320;8.446;2023-12-20T01:42:57;5.10;;;3.03;;
81026;SDS011;70506;49.320;8.446;2023-12-20T01:45:23;8.85;;;3.63;;
81026;SDS011;70506;49.320;8.446;2023-12-20T01:47:48;6.93;;;2.67;;
81026;SDS011;70506;49.320;8.446;2023-12-20T01:50:13;5.53;;;3.35;;
81026;SDS011;70506;49.320;8.446;2023-12-20T01:52:39;5.00;;;3.35;;
81026;SDS011;70506;49.320;8.446;2023-12-20T01:55:05;5.00;;;2.63;;
81026;SDS011;70506;49.320;8.446;2023-12-20T01:57:37;6.35;;;3.08;;
81026;SDS011;70506;49.320;8.446;2023-12-20T02:00:03;7.03;;;3.13;;
81026;SDS011;70506;49.320;8.446;2023-12-20T02:02:29;5.53;;;2.88;;
81026;SDS011;70506;49.320;8.446;2023-12-20T02:04:58;4.40;;;2.70;;
81026;SDS011;70506;49.320;8.446;2023-12-20T02:07:23;5.80;;;2.30;;
81026;SDS011;70506;49.320;8.446;2023-12-20T02:09:49;6.53;;;2.78;;
81026;SDS011;70506;49.320;8.446;2023-12-20T02:12:15;6.55;;;2.88;;
81026;SDS011;70506;49.320;8.446;2023-12-20T02:14:40;5.47;;;3.05;;
81026;SDS011;70506;49.320;8.446;2023-12-20T02:17:06;4.78;;;2.58;;
81026;SDS011;70506;49.320;8.446;2023-12-20T02:19:31;5.30;;;3.07;;
81026;SDS011;70506;49.320;8.446;2023-12-20T02:22:07;4.30;;;2.15;;
81026;SDS011;70506;49.320;8.446;2023-12-20T02:24:32;5.15;;;2.53;;
81026;SDS011;70506;49.320;8.446;2023-12-20T02:26:57;4.17;;;2.43;;
81026;SDS011;70506;49.320;8.446;2023-12-20T02:29:23;5.53;;;2.83;;
81026;SDS011;70506;49.320;8.446;2023-12-20T02:31:48;4.70;;;2.30;;
81026;SDS011;70506;49.320;8.446;2023-12-20T02:34:13;8.30;;;2.80;;
81026;SDS011;70506;49.320;8.446;2023-12-20T02:36:39;3.53;;;2.13;;
81026;SDS011;70506;49.320;8.446;2023-12-20T02:39:04;4.97;;;1.87;;
81026;SDS011;70506;49.320;8.446;2023-12-20T02:41:29;7.53;;;2.27;;
81026;SDS011;70506;49.320;8.446;2023-12-20T02:43:55;3.43;;;2.03;;
81026;SDS011;70506;49.320;8.446;2023-12-20T02:46:20;3.17;;;1.90;;
81026;SDS011;70506;49.320;8.446;2023-12-20T02:48:45;4.80;;;2.13;;
81026;SDS011;70506;49.320;8.446;2023-12-20T02:51:12;5.15;;;2.70;;
81026;SDS011;70506;49.320;8.446;2023-12-20T02:53:37;2.40;;;1.60;;
81026;SDS011;70506;49.320;8.446;2023-12-20T02:56:02;4.47;;;2.00;;
81026;SDS011;70506;49.320;8.446;2023-12-20T02:58:28;4.25;;;2.30;;
81026;SDS011;70506;49.320;8.446;2023-12-20T03:00:53;3.37;;;1.60;;
81026;SDS011;70506;49.320;8.446;2023-12-20T03:03:19;2.78;;;1.48;;
81026;SDS011;70506;49.320;8.446;2023-12-20T03:05:44;3.50;;;1.60;;
81026;SDS011;70506;49.320;8.446;2023-12-20T03:08:10;2.67;;;1.52;;
81026;SDS011;70506;49.320;8.446;2023-12-20T03:10:36;2.28;;;1.38;;
81026;SDS011;70506;49.320;8.446;2023-12-20T03:13:01;2.90;;;1.50;;
81026;SDS011;70506;49.320;8.446;2023-12-20T03:15:26;2.77;;;1.57;;
81026;SDS011;70506;49.320;8.446;2023-12-20T03:17:52;3.30;;;1.70;;
81026;SDS011;70506;49.320;8.446;2023-12-20T03:20:17;2.83;;;1.73;;
81026;SDS011;70506;49.320;8.446;2023-12-20T03:22:42;3.83;;;1.53;;
81026;SDS011;70506;49.320;8.446;2023-12-20T03:25:08;2.27;;;1.27;;
81026;SDS011;70506;49.320;8.446;2023-12-20T03:27:33;3.70;;;1.52;;
81026;SDS011;70506;49.320;8.446;2023-12-20T03:29:58;3.33;;;1.53;;
81026;SDS011;70506;49.320;8.446;2023-12-20T03:32:23;2.37;;;1.40;;
81026;SDS011;70506;49.320;8.446;2023-12-20T03:34:49;3.60;;;1.67;;
81026;SDS011;70506;49.320;8.446;2023-12-20T03:37:14;3.10;;;1.13;;
81026;SDS011;70506;49.320;8.446;2023-12-20T03:39:39;3.07;;;1.30;;
81026;SDS011;70506;49.320;8.446;2023-12-20T03:42:05;2.80;;;1.70;;
81026;SDS011;70506;49.320;8.446;2023-12-20T03:44:30;2.15;;;1.00;;
81026;SDS011;70506;49.320;8.446;2023-12-20T03:46:55;3.50;;;1.95;;
81026;SDS011;70506;49.320;8.446;2023-12-20T03:49:21;2.40;;;0.95;;
81026;SDS011;70506;49.320;8.446;2023-12-20T03:51:46;3.83;;;1.30;;
81026;SDS011;70506;49.320;8.446;2023-12-20T03:54:12;2.27;;;1.00;;
81026;SDS011;70506;49.320;8.446;2023-12-20T03:56:37;2.17;;;1.27;;
81026;SDS011;70506;49.320;8.446;2023-12-20T03:59:03;2.77;;;1.40;;
81026;SDS011;70506;49.320;8.446;2023-12-20T04:01:28;1.45;;;0.80;;
81026;SDS011;70506;49.320;8.446;2023-12-20T04:03:53;2.03;;;1.10;;
81026;SDS011;70506;49.320;8.446;2023-12-20T04:06:19;1.75;;;0.95;;
81026;SDS011;70506;49.320;8.446;2023-12-20T04:08:44;2.35;;;1.00;;
81026;SDS011;70506;49.320;8.446;2023-12-20T04:11:10;0.82;;;0.60;;
81026;SDS011;70506;49.320;8.446;2023-12-20T04:13:35;1.93;;;0.97;;
81026;SDS011;70506;49.320;8.446;2023-12-20T04:16:00;1.90;;;1.00;;
81026;SDS011;70506;49.320;8.446;2023-12-20T04:18:26;2.67;;;1.20;;
81026;SDS011;70506;49.320;8.446;2023-12-20T04:20:53;1.65;;;0.88;;
81026;SDS011;70506;49.320;8.446;2023-12-20T04:23:18;1.67;;;1.00;;
81026;SDS011;70506;49.320;8.446;2023-12-20T04:25:44;2.55;;;0.82;;
81026;SDS011;70506;49.320;8.446;2023-12-20T04:28:09;2.60;;;1.20;;
81026;SDS011;70506;49.320;8.446;2023-12-20T04:30:35;2.20;;;1.07;;
81026;SDS011;70506;49.320;8.446;2023-12-20T04:33:00;2.10;;;0.97;;
81026;SDS011;70506;49.320;8.446;2023-12-20T04:35:25;2.08;;;1.17;;
81026;SDS011;70506;49.320;8.446;2023-12-20T04:37:51;1.70;;;0.98;;
81026;SDS011;70506;49.320;8.446;2023-12-20T04:40:16;1.38;;;0.77;;
81026;SDS011;70506;49.320;8.446;2023-12-20T04:42:41;1.27;;;0.98;;
81026;SDS011;70506;49.320;8.446;2023-12-20T04:45:07;1.25;;;1.05;;
81026;SDS011;70506;49.320;8.446;2023-12-20T04:47:32;1.67;;;0.85;;
81026;SDS011;70506;49.320;8.446;2023-12-20T04:49:58;3.03;;;1.60;;
81026;SDS011;70506;49.320;8.446;2023-12-20T04:52:23;2.63;;;1.13;;
81026;SDS011;70506;49.320;8.446;2023-12-20T04:54:49;1.97;;;1.10;;
81026;SDS011;70506;49.320;8.446;2023-12-20T04:57:14;3.37;;;1.40;;
81026;SDS011;70506;49.320;8.446;2023-12-20T04:59:39;2.23;;;1.10;;
81026;SDS011;70506;49.320;8.446;2023-12-20T05:02:06;1.98;;;1.20;;
81026;SDS011;70506;49.320;8.446;2023-12-20T05:04:31;2.17;;;1.23;;
81026;SDS011;70506;49.320;8.446;2023-12-20T05:06:56;1.93;;;1.20;;
81026;SDS011;70506;49.320;8.446;2023-12-20T05:09:21;1.90;;;1.37;;
81026;SDS011;70506;49.320;8.446;2023-12-20T05:11:47;2.50;;;0.93;;
81026;SDS011;70506;49.320;8.446;2023-12-20T05:14:22;2.43;;;1.40;;
81026;SDS011;70506;49.320;8.446;2023-12-20T05:16:47;2.42;;;0.98;;
81026;SDS011;70506;49.320;8.446;2023-12-20T05:19:13;2.33;;;1.40;;
81026;SDS011;70506;49.320;8.446;2023-12-20T05:21:39;1.25;;;0.93;;
81026;SDS011;70506;49.320;8.446;2023-12-20T05:24:04;1.40;;;1.05;;
81026;SDS011;70506;49.320;8.446;2023-12-20T05:26:30;2.25;;;1.13;;
81026;SDS011;70506;49.320;8.446;2023-12-20T05:28:55;2.58;;;1.40;;
81026;SDS011;70506;49.320;8.446;2023-12-20T05:31:20;1.83;;;1.10;;
81026;SDS011;70506;49.320;8.446;2023-12-20T05:33:46;1.80;;;1.17;;
81026;SDS011;70506;49.320;8.446;2023-12-20T05:36:11;1.80;;;1.43;;
81026;SDS011;70506;49.320;8.446;2023-12-20T05:38:38;1.92;;;1.30;;
81026;SDS011;70506;49.320;8.446;2023-12-20T05:41:04;2.00;;;1.27;;
81026;SDS011;70506;49.320;8.446;2023-12-20T05:43:29;1.50;;;1.27;;
81026;SDS011;70506;49.320;8.446;2023-12-20T05:45:55;1.57;;;0.97;;
81026;SDS011;70506;49.320;8.446;2023-12-20T05:48:20;2.27;;;0.93;;
81026;SDS011;70506;49.320;8.446;2023-12-20T05:50:45;2.83;;;1.43;;
81026;SDS011;70506;49.320;8.446;2023-12-20T05:53:10;2.50;;;1.20;;
81026;SDS011;70506;49.320;8.446;2023-12-20T05:55:36;3.67;;;1.37;;
81026;SDS011;70506;49.320;8.446;2023-12-20T05:58:01;2.70;;;1.20;;
81026;SDS011;70506;49.320;8.446;2023-12-20T06:00:26;3.42;;;1.52;;
81026;SDS011;70506;49.320;8.446;2023-12-20T06:02:52;1.27;;;0.90;;
81026;SDS011;70506;49.320;8.446;2023-12-20T06:05:17;3.08;;;1.38;;
81026;SDS011;70506;49.320;8.446;2023-12-20T06:07:42;3.27;;;1.20;;
81026;SDS011;70506;49.320;8.446;2023-12-20T06:10:08;2.75;;;1.48;;
81026;SDS011;70506;49.320;8.446;2023-12-20T06:12:34;1.92;;;1.20;;
81026;SDS011;70506;49.320;8.446;2023-12-20T06:15:01;2.70;;;1.38;;
81026;SDS011;70506;49.320;8.446;2023-12-20T06:17:27;2.28;;;1.05;;
81026;SDS011;70506;49.320;8.446;2023-12-20T06:19:58;2.92;;;1.50;;
81026;SDS011;70506;49.320;8.446;2023-12-20T06:22:37;2.95;;;1.60;;
81026;SDS011;70506;49.320;8.446;2023-12-20T06:25:02;2.05;;;1.20;;
81026;SDS011;70506;49.320;8.446;2023-12-20T06:27:28;1.83;;;1.30;;
81026;SDS011;70506;49.320;8.446;2023-12-20T06:29:53;2.03;;;1.17;;
81026;SDS011;70506;49.320;8.446;2023-12-20T06:32:19;5.63;;;1.77;;
81026;SDS011;70506;49.320;8.446;2023-12-20T06:34:44;1.93;;;1.07;;
81026;SDS011;70506;49.320;8.446;2023-12-20T06:37:09;2.83;;;1.42;;
81026;SDS011;70506;49.320;8.446;2023-12-20T06:39:35;2.42;;;1.30;;
81026;SDS011;70506;49.320;8.446;2023-12-20T06:42:00;2.67;;;1.50;;
81026;SDS011;70506;49.320;8.446;2023-12-20T06:44:26;2.72;;;1.40;;
81026;SDS011;70506;49.320;8.446;2023-12-20T06:46:51;2.50;;;1.53;;
81026;SDS011;70506;49.320;8.446;2023-12-20T06:49:16;3.77;;;1.73;;
81026;SDS011;70506;49.320;8.446;2023-12-20T06:51:41;3.25;;;1.77;;
81026;SDS011;70506;49.320;8.446;2023-12-20T06:54:07;3.80;;;1.90;;
81026;SDS011;70506;49.320;8.446;2023-12-20T06:56:32;3.90;;;1.57;;
81026;SDS011;70506;49.320;8.446;2023-12-20T06:58:58;3.60;;;1.83;;
81026;SDS011;70506;49.320;8.446;2023-12-20T07:01:23;2.90;;;1.58;;
81026;SDS011;70506;49.320;8.446;2023-12-20T07:03:49;3.00;;;1.73;;
81026;SDS011;70506;49.320;8.446;2023-12-20T07:06:14;4.57;;;1.70;;
81026;SDS011;70506;49.320;8.446;2023-12-20T07:08:41;4.30;;;2.17;;
81026;SDS011;70506;49.320;8.446;2023-12-20T07:11:06;2.50;;;1.55;;
81026;SDS011;70506;49.320;8.446;2023-12-20T07:13:32;5.33;;;2.03;;
81026;SDS011;70506;49.320;8.446;2023-12-20T07:15:57;3.00;;;1.77;;
81026;SDS011;70506;49.320;8.446;2023-12-20T07:18:22;3.10;;;2.00;;
81026;SDS011;70506;49.320;8.446;2023-12-20T07:20:48;5.17;;;2.10;;
81026;SDS011;70506;49.320;8.446;2023-12-20T07:23:13;4.20;;;1.63;;
81026;SDS011;70506;49.320;8.446;2023-12-20T07:25:38;7.43;;;1.60;;
81026;SDS011;70506;49.320;8.446;2023-12-20T07:28:03;4.20;;;1.80;;
81026;SDS011;70506;49.320;8.446;2023-12-20T07:30:29;2.40;;;1.52;;
81026;SDS011;70506;49.320;8.446;2023-12-20T07:32:55;2.25;;;1.27;;
81026;SDS011;70506;49.320;8.446;2023-12-20T07:35:20;2.72;;;1.35;;
81026;SDS011;70506;49.320;8.446;2023-12-20T07:37:45;3.70;;;2.07;;
81026;SDS011;70506;49.320;8.446;2023-12-20T07:40:11;5.90;;;2.07;;
81026;SDS011;70506;49.320;8.446;2023-12-20T07:42:36;5.30;;;1.75;;
81026;SDS011;70506;49.320;8.446;2023-12-20T07:45:02;3.07;;;1.70;;
81026;SDS011;70506;49.320;8.446;2023-12-20T07:47:27;2.00;;;1.10;;
81026;SDS011;70506;49.320;8.446;2023-12-20T07:49:53;3.35;;;1.25;;
81026;SDS011;70506;49.320;8.446;2023-12-20T07:52:18;7.22;;;1.67;;
81026;SDS011;70506;49.320;8.446;2023-12-20T07:54:44;6.20;;;1.50;;
81026;SDS011;70506;49.320;8.446;2023-12-20T07:57:10;3.28;;;1.40;;
81026;SDS011;70506;49.320;8.446;2023-12-20T07:59:36;1.95;;;1.25;;
81026;SDS011;70506;49.320;8.446;2023-12-20T08:02:01;2.25;;;1.35;;
81026;SDS011;70506;49.320;8.446;2023-12-20T08:04:26;2.45;;;1.50;;
81026;SDS011;70506;49.320;8.446;2023-12-20T08:06:52;1.88;;;1.10;;
81026;SDS011;70506;49.320;8.446;2023-12-20T08:09:17;3.58;;;1.30;;
81026;SDS011;70506;49.320;8.446;2023-12-20T08:11:46;5.82;;;1.52;;
81026;SDS011;70506;49.320;8.446;2023-12-20T08:14:12;4.47;;;1.40;;
81026;SDS011;70506;49.320;8.446;2023-12-20T08:16:37;1.85;;;0.93;;
81026;SDS011;70506;49.320;8.446;2023-12-20T08:19:02;4.17;;;1.10;;
81026;SDS011;70506;49.320;8.446;2023-12-20T08:21:28;1.23;;;0.95;;
81026;SDS011;70506;49.320;8.446;2023-12-20T08:23:56;6.18;;;1.00;;
81026;SDS011;70506;49.320;8.446;2023-12-20T08:26:21;1.50;;;0.90;;
81026;SDS011;70506;49.320;8.446;2023-12-20T08:28:48;2.13;;;0.75;;
81026;SDS011;70506;49.320;8.446;2023-12-20T08:31:16;2.05;;;0.98;;
81026;SDS011;70506;49.320;8.446;2023-12-20T08:33:43;4.90;;;1.10;;
81026;SDS011;70506;49.320;8.446;2023-12-20T08:36:09;2.70;;;1.55;;
81026;SDS011;70506;49.320;8.446;2023-12-20T08:38:34;2.60;;;1.10;;
81026;SDS011;70506;49.320;8.446;2023-12-20T08:40:59;4.15;;;1.23;;
81026;SDS011;70506;49.320;8.446;2023-12-20T08:43:26;2.92;;;1.40;;
81026;SDS011;70506;49.320;8.446;2023-12-20T08:45:51;3.83;;;0.90;;
81026;SDS011;70506;49.320;8.446;2023-12-20T08:48:16;3.00;;;1.43;;
81026;SDS011;70506;49.320;8.446;2023-12-20T08:50:42;1.87;;;1.20;;
81026;SDS011;70506;49.320;8.446;2023-12-20T08:53:08;1.58;;;1.33;;
81026;SDS011;70506;49.320;8.446;2023-12-20T08:55:33;2.55;;;1.35;;
81026;SDS011;70506;49.320;8.446;2023-12-20T08:57:59;2.13;;;1.08;;
81026;SDS011;70506;49.320;8.446;2023-12-20T09:00:24;1.23;;;1.08;;
81026;SDS011;70506;49.320;8.446;2023-12-20T09:02:52;5.05;;;1.48;;
81026;SDS011;70506;49.320;8.446;2023-12-20T09:05:17;1.93;;;0.80;;
81026;SDS011;70506;49.320;8.446;2023-12-20T09:07:43;2.38;;;1.10;;
81026;SDS011;70506;49.320;8.446;2023-12-20T09:10:08;3.88;;;1.08;;
81026;SDS011;70506;49.320;8.446;2023-12-20T09:12:34;1.50;;;0.90;;
81026;SDS011;70506;49.320;8.446;2023-12-20T09:14:59;5.07;;;1.00;;
81026;SDS011;70506;49.320;8.446;2023-12-20T09:17:27;1.88;;;0.95;;
81026;SDS011;70506;49.320;8.446;2023-12-20T09:19:52;3.33;;;0.83;;
81026;SDS011;70506;49.320;8.446;2023-12-20T09:22:19;2.10;;;1.02;;
81026;SDS011;70506;49.320;8.446;2023-12-20T09:24:44;1.20;;;1.00;;
81026;SDS011;70506;49.320;8.446;2023-12-20T09:27:09;4.90;;;1.33;;
81026;SDS011;70506;49.320;8.446;2023-12-20T09:29:35;1.85;;;0.95;;
81026;SDS011;70506;49.320;8.446;2023-12-20T09:32:00;2.03;;;0.93;;
81026;SDS011;70506;49.320;8.446;2023-12-20T09:34:26;3.05;;;0.88;;
81026;SDS011;70506;49.320;8.446;2023-12-20T09:36:52;4.97;;;0.90;;
81026;SDS011;70506;49.320;8.446;2023-12-20T09:39:18;0.35;;;0.20;;
81026;SDS011;70506;49.320;8.446;2023-12-20T09:42:00;1.33;;;0.80;;
81026;SDS011;70506;49.320;8.446;2023-12-20T09:44:29;2.72;;;0.90;;
81026;SDS011;70506;49.320;8.446;2023-12-20T09:46:56;1.10;;;0.73;;
81026;SDS011;70506;49.320;8.446;2023-12-20T09:49:21;6.13;;;1.05;;
81026;SDS011;70506;49.320;8.446;2023-12-20T09:51:47;1.48;;;0.80;;
81026;SDS011;70506;49.320;8.446;2023-12-20T09:54:16;4.63;;;0.63;;
81026;SDS011;70506;49.320;8.446;2023-12-20T09:56:42;1.30;;;0.82;;
81026;SDS011;70506;49.320;8.446;2023-12-20T09:59:08;0.98;;;0.68;;
81026;SDS011;70506;49.320;8.446;2023-12-20T10:01:34;2.85;;;1.00;;
81026;SDS011;70506;49.320;8.446;2023-12-20T10:04:00;2.13;;;0.88;;
81026;SDS011;70506;49.320;8.446;2023-12-20T10:06:27;3.55;;;0.52;;
81026;SDS011;70506;49.320;8.446;2023-12-20T10:08:52;3.72;;;0.98;;
81026;SDS011;70506;49.320;8.446;2023-12-20T10:11:18;3.50;;;0.88;;
81026;SDS011;70506;49.320;8.446;2023-12-20T10:13:44;1.70;;;0.98;;
81026;SDS011;70506;49.320;8.446;2023-12-20T10:16:09;1.30;;;0.98;;
81026;SDS011;70506;49.320;8.446;2023-12-20T10:18:35;3.10;;;1.00;;
81026;SDS011;70506;49.320;8.446;2023-12-20T10:21:01;1.83;;;0.70;;
81026;SDS011;70506;49.320;8.446;2023-12-20T10:23:26;1.83;;;0.47;;
81026;SDS011;70506;49.320;8.446;2023-12-20T10:25:58;3.88;;;0.77;;
81026;SDS011;70506;49.320;8.446;2023-12-20T10:28:23;2.97;;;0.90;;
81026;SDS011;70506;49.320;8.446;2023-12-20T10:30:52;1.13;;;0.40;;
81026;SDS011;70506;49.320;8.446;2023-12-20T10:33:24;3.03;;;0.95;;
81026;SDS011;70506;49.320;8.446;2023-12-20T10:35:54;3.17;;;1.08;;
81026;SDS011;70506;49.320;8.446;2023-12-20T10:38:19;4.20;;;0.98;;
81026;SDS011;70506;49.320;8.446;2023-12-20T10:40:45;1.10;;;0.70;;
81026;SDS011;70506;49.320;8.446;2023-12-20T10:43:11;1.83;;;1.00;;
81026;SDS011;70506;49.320;8.446;2023-12-20T10:45:36;2.25;;;0.90;;
81026;SDS011;70506;49.320;8.446;2023-12-20T10:48:02;4.80;;;0.85;;
81026;SDS011;70506;49.320;8.446;2023-12-20T10:50:28;0.80;;;0.43;;
81026;SDS011;70506;49.320;8.446;2023-12-20T10:52:55;8.07;;;0.70;;
81026;SDS011;70506;49.320;8.446;2023-12-20T10:55:23;2.42;;;1.08;;
81026;SDS011;70506;49.320;8.446;2023-12-20T10:57:54;2.13;;;0.88;;
81026;SDS011;70506;49.320;8.446;2023-12-20T11:00:29;1.05;;;0.65;;
81026;SDS011;70506;49.320;8.446;2023-12-20T11:02:56;4.13;;;0.88;;
81026;SDS011;70506;49.320;8.446;2023-12-20T11:08:01;0.60;;;0.47;;
81026;SDS011;70506;49.320;8.446;2023-12-20T11:10:36;3.05;;;1.17;;
81026;SDS011;70506;49.320;8.446;2023-12-20T11:13:32;3.20;;;0.80;;
81026;SDS011;70506;49.320;8.446;2023-12-20T11:16:13;2.78;;;0.88;;
81026;SDS011;70506;49.320;8.446;2023-12-20T11:18:38;3.05;;;1.00;;
81026;SDS011;70506;49.320;8.446;2023-12-20T11:21:05;1.42;;;0.60;;
81026;SDS011;70506;49.320;8.446;2023-12-20T11:23:31;1.45;;;0.95;;
81026;SDS011;70506;49.320;8.446;2023-12-20T11:25:59;2.72;;;0.73;;
81026;SDS011;70506;49.320;8.446;2023-12-20T11:28:25;4.93;;;1.35;;
81026;SDS011;70506;49.320;8.446;2023-12-20T11:33:20;3.45;;;1.23;;
81026;SDS011;70506;49.320;8.446;2023-12-20T11:35:49;1.83;;;1.00;;
81026;SDS011;70506;49.320;8.446;2023-12-20T11:38:15;8.85;;;1.40;;
81026;SDS011;70506;49.320;8.446;2023-12-20T11:40:43;4.53;;;1.00;;
81026;SDS011;70506;49.320;8.446;2023-12-20T11:43:09;4.88;;;1.00;;
81026;SDS011;70506;49.320;8.446;2023-12-20T11:45:34;3.30;;;1.33;;
81026;SDS011;70506;49.320;8.446;2023-12-20T11:48:01;1.35;;;0.77;;
81026;SDS011;70506;49.320;8.446;2023-12-20T11:50:27;0.68;;;0.63;;
81026;SDS011;70506;49.320;8.446;2023-12-20T11:52:53;1.77;;;0.95;;
81026;SDS011;70506;49.320;8.446;2023-12-20T11:55:20;1.83;;;0.85;;
81026;SDS011;70506;49.320;8.446;2023-12-20T11:57:45;1.00;;;0.70;;
81026;SDS011;70506;49.320;8.446;2023-12-20T12:00:11;6.68;;;1.15;;
81026;SDS011;70506;49.320;8.446;2023-12-20T12:02:38;6.13;;;1.17;;
81026;SDS011;70506;49.320;8.446;2023-12-20T12:05:03;3.00;;;0.93;;
81026;SDS011;70506;49.320;8.446;2023-12-20T12:07:30;4.75;;;1.75;;
81026;SDS011;70506;49.320;8.446;2023-12-20T12:09:59;2.67;;;1.25;;
81026;SDS011;70506;49.320;8.446;2023-12-20T12:12:24;2.70;;;1.40;;
81026;SDS011;70506;49.320;8.446;2023-12-20T12:14:52;7.22;;;1.33;;
81026;SDS011;70506;49.320;8.446;2023-12-20T12:17:18;5.53;;;1.15;;
81026;SDS011;70506;49.320;8.446;2023-12-20T12:19:43;3.87;;;1.67;;
81026;SDS011;70506;49.320;8.446;2023-12-20T12:22:10;2.63;;;1.45;;
81026;SDS011;70506;49.320;8.446;2023-12-20T12:24:40;4.88;;;1.27;;
81026;SDS011;70506;49.320;8.446;2023-12-20T12:27:06;1.70;;;0.88;;
81026;SDS011;70506;49.320;8.446;2023-12-20T12:29:32;4.63;;;1.40;;
81026;SDS011;70506;49.320;8.446;2023-12-20T12:31:58;2.90;;;1.20;;
81026;SDS011;70506;49.320;8.446;2023-12-20T12:34:24;2.25;;;1.08;;
81026;SDS011;70506;49.320;8.446;2023-12-20T12:36:49;3.90;;;1.30;;
81026;SDS011;70506;49.320;8.446;2023-12-20T12:39:15;2.97;;;1.02;;
81026;SDS011;70506;49.320;8.446;2023-12-20T12:41:42;3.88;;;0.77;;
81026;SDS011;70506;49.320;8.446;2023-12-20T12:44:07;9.17;;;1.40;;
81026;SDS011;70506;49.320;8.446;2023-12-20T12:46:33;4.43;;;0.98;;
81026;SDS011;70506;49.320;8.446;2023-12-20T12:48:58;4.20;;;0.95;;
81026;SDS011;70506;49.320;8.446;2023-12-20T12:51:23;3.67;;;1.07;;
81026;SDS011;70506;49.320;8.446;2023-12-20T12:53:49;1.43;;;1.00;;
81026;SDS011;70506;49.320;8.446;2023-12-20T12:56:15;4.20;;;1.00;;
81026;SDS011;70506;49.320;8.446;2023-12-20T12:58:40;4.30;;;1.20;;
81026;SDS011;70506;49.320;8.446;2023-12-20T13:01:05;2.08;;;1.10;;
81026;SDS011;70506;49.320;8.446;2023-12-20T13:03:31;5.00;;;0.90;;
81026;SDS011;70506;49.320;8.446;2023-12-20T13:05:56;7.77;;;1.07;;
81026;SDS011;70506;49.320;8.446;2023-12-20T13:08:21;6.03;;;1.55;;
81026;SDS011;70506;49.320;8.446;2023-12-20T13:10:47;3.65;;;1.25;;
81026;SDS011;70506;49.320;8.446;2023-12-20T13:13:12;2.40;;;1.10;;
81026;SDS011;70506;49.320;8.446;2023-12-20T13:15:38;4.90;;;0.98;;
81026;SDS011;70506;49.320;8.446;2023-12-20T13:18:03;3.67;;;1.27;;
81026;SDS011;70506;49.320;8.446;2023-12-20T13:22:54;1.07;;;0.77;;
81026;SDS011;70506;49.320;8.446;2023-12-20T13:25:20;5.80;;;1.20;;
81026;SDS011;70506;49.320;8.446;2023-12-20T13:27:45;9.73;;;1.40;;
81026;SDS011;70506;49.320;8.446;2023-12-20T13:30:10;2.55;;;0.95;;
81026;SDS011;70506;49.320;8.446;2023-12-20T13:32:36;3.08;;;0.98;;
81026;SDS011;70506;49.320;8.446;2023-12-20T13:35:02;1.98;;;1.17;;
81026;SDS011;70506;49.320;8.446;2023-12-20T13:37:29;2.83;;;0.88;;
81026;SDS011;70506;49.320;8.446;2023-12-20T13:39:54;3.15;;;1.00;;
81026;SDS011;70506;49.320;8.446;2023-12-20T13:42:19;3.17;;;1.20;;
81026;SDS011;70506;49.320;8.446;2023-12-20T13:44:45;0.95;;;0.88;;
81026;SDS011;70506;49.320;8.446;2023-12-20T13:47:11;4.82;;;1.33;;
81026;SDS011;70506;49.320;8.446;2023-12-20T13:49:37;1.45;;;0.80;;
81026;SDS011;70506;49.320;8.446;2023-12-20T13:52:02;3.50;;;0.87;;
81026;SDS011;70506;49.320;8.446;2023-12-20T13:56:54;4.40;;;1.10;;
81026;SDS011;70506;49.320;8.446;2023-12-20T13:59:22;1.57;;;1.00;;
81026;SDS011;70506;49.320;8.446;2023-12-20T14:01:47;2.65;;;1.02;;
81026;SDS011;70506;49.320;8.446;2023-12-20T14:04:14;1.23;;;0.80;;
81026;SDS011;70506;49.320;8.446;2023-12-20T14:06:40;3.27;;;1.07;;
81026;SDS011;70506;49.320;8.446;2023-12-20T14:09:05;6.07;;;1.00;;
81026;SDS011;70506;49.320;8.446;2023-12-20T14:11:30;5.53;;;0.80;;
81026;SDS011;70506;49.320;8.446;2023-12-20T14:13:56;1.73;;;1.10;;
81026;SDS011;70506;49.320;8.446;2023-12-20T14:16:23;2.97;;;1.20;;
81026;SDS011;70506;49.320;8.446;2023-12-20T14:18:49;3.88;;;1.10;;
81026;SDS011;70506;49.320;8.446;2023-12-20T14:21:14;6.40;;;1.10;;
81026;SDS011;70506;49.320;8.446;2023-12-20T14:23:39;2.50;;;0.87;;
81026;SDS011;70506;49.320;8.446;2023-12-20T14:26:06;5.72;;;0.95;;
81026;SDS011;70506;49.320;8.446;2023-12-20T14:28:31;2.13;;;0.80;;
81026;SDS011;70506;49.320;8.446;2023-12-20T14:30:56;1.83;;;0.80;;
81026;SDS011;70506;49.320;8.446;2023-12-20T14:33:22;1.53;;;0.67;;
81026;SDS011;70506;49.320;8.446;2023-12-20T14:35:47;3.70;;;0.87;;
81026;SDS011;70506;49.320;8.446;2023-12-20T14:38:12;2.85;;;1.00;;
81026;SDS011;70506;49.320;8.446;2023-12-20T14:40:40;1.02;;;0.70;;
81026;SDS011;70506;49.320;8.446;2023-12-20T14:43:06;2.95;;;0.68;;
81026;SDS011;70506;49.320;8.446;2023-12-20T14:45:31;4.78;;;0.90;;
81026;SDS011;70506;49.320;8.446;2023-12-20T14:47:56;2.23;;;0.67;;
81026;SDS011;70506;49.320;8.446;2023-12-20T14:50:22;3.13;;;0.80;;